Schedule Details


Flight Number: CTN491
Departure: Krk Island (LDRI) at 15:45
Arrival: Franjo Tudman (LDZA) at 16:20
Route: KULEN M986 KOTOR

Weather Information
LDRI 200830Z 05023G46KT 310V100 CAVOK 09/M08 Q1028
LDZA 200830Z 05014KT 360V080 CAVOK 08/M03 Q1032 NOSIG
Schedule Frequency

Route Map